sensor_id;sensor_type;location;lat;lon;timestamp;temperature;humidity
16728;DHT22;8482;54.396;18.590;2023-01-05T14:51:27;6.20;99.90
16728;DHT22;8482;54.396;18.590;2023-01-05T14:53:59;6.10;99.90
16728;DHT22;8482;54.396;18.590;2023-01-05T14:56:32;6.10;99.90
16728;DHT22;8482;54.396;18.590;2023-01-05T15:01:52;6.10;99.90
16728;DHT22;8482;54.396;18.590;2023-01-05T15:04:29;6.10;99.90
16728;DHT22;8482;54.396;18.590;2023-01-05T15:16:47;6.00;99.90
16728;DHT22;8482;54.396;18.590;2023-01-05T15:19:54;6.10;99.90
16728;DHT22;8482;54.396;18.590;2023-01-05T15:29:16;6.10;99.90
16728;DHT22;8482;54.396;18.590;2023-01-05T15:32:16;6.10;99.90
16728;DHT22;8482;54.396;18.590;2023-01-05T15:35:21;6.10;99.90
16728;DHT22;8482;54.396;18.590;2023-01-05T15:37:54;6.10;99.90
16728;DHT22;8482;54.396;18.590;2023-01-05T15:42:47;6.10;99.90
16728;DHT22;8482;54.396;18.590;2023-01-05T15:45:34;6.10;99.90
16728;DHT22;8482;54.396;18.590;2023-01-05T15:48:12;6.10;99.90
16728;DHT22;8482;54.396;18.590;2023-01-05T15:50:51;6.00;99.90
16728;DHT22;8482;54.396;18.590;2023-01-05T15:56:01;6.00;99.90
16728;DHT22;8482;54.396;18.590;2023-01-05T15:58:44;6.10;99.90
16728;DHT22;8482;54.396;18.590;2023-01-05T16:01:12;6.10;99.90
16728;DHT22;8482;54.396;18.590;2023-01-05T16:03:42;6.10;99.90
16728;DHT22;8482;54.396;18.590;2023-01-05T16:06:19;6.10;99.90
16728;DHT22;8482;54.396;18.590;2023-01-05T16:08:52;6.10;99.90
16728;DHT22;8482;54.396;18.590;2023-01-05T16:11:34;6.10;99.90
16728;DHT22;8482;54.396;18.590;2023-01-05T16:14:21;6.10;99.90
16728;DHT22;8482;54.396;18.590;2023-01-05T16:17:02;6.00;99.90
16728;DHT22;8482;54.396;18.590;2023-01-05T16:22:51;6.00;99.90
16728;DHT22;8482;54.396;18.590;2023-01-05T16:25:41;6.00;99.90
16728;DHT22;8482;54.396;18.590;2023-01-05T16:28:16;5.90;99.90
16728;DHT22;8482;54.396;18.590;2023-01-05T16:30:46;5.90;99.90
16728;DHT22;8482;54.396;18.590;2023-01-05T16:35:50;5.90;99.90
16728;DHT22;8482;54.396;18.590;2023-01-05T16:41:05;5.90;99.90
16728;DHT22;8482;54.396;18.590;2023-01-05T16:43:56;5.90;99.90
16728;DHT22;8482;54.396;18.590;2023-01-05T16:49:23;5.90;99.90
16728;DHT22;8482;54.396;18.590;2023-01-05T16:51:52;5.90;99.90
16728;DHT22;8482;54.396;18.590;2023-01-05T16:57:03;5.80;99.90
16728;DHT22;8482;54.396;18.590;2023-01-05T16:59:49;5.80;99.90
16728;DHT22;8482;54.396;18.590;2023-01-05T17:05:06;5.80;99.90
16728;DHT22;8482;54.396;18.590;2023-01-05T17:07:35;5.80;99.90
16728;DHT22;8482;54.396;18.590;2023-01-05T17:10:05;5.80;99.90
16728;DHT22;8482;54.396;18.590;2023-01-05T17:12:33;5.80;99.90
16728;DHT22;8482;54.396;18.590;2023-01-05T17:15:01;5.70;99.90
16728;DHT22;8482;54.396;18.590;2023-01-05T17:17:31;5.70;99.90
16728;DHT22;8482;54.396;18.590;2023-01-05T17:19:57;5.70;99.90
16728;DHT22;8482;54.396;18.590;2023-01-05T17:22:22;5.70;99.90
16728;DHT22;8482;54.396;18.590;2023-01-05T17:24:49;5.70;99.90
16728;DHT22;8482;54.396;18.590;2023-01-05T17:27:16;5.70;99.90
16728;DHT22;8482;54.396;18.590;2023-01-05T17:29:42;5.70;99.90
16728;DHT22;8482;54.396;18.590;2023-01-05T17:32:08;5.70;99.90
16728;DHT22;8482;54.396;18.590;2023-01-05T17:34:37;5.70;99.90
16728;DHT22;8482;54.396;18.590;2023-01-05T17:37:05;5.70;99.90
16728;DHT22;8482;54.396;18.590;2023-01-05T17:39:31;5.70;99.90
16728;DHT22;8482;54.396;18.590;2023-01-05T17:41:59;5.70;99.90
16728;DHT22;8482;54.396;18.590;2023-01-05T17:44:45;5.70;99.90
16728;DHT22;8482;54.396;18.590;2023-01-05T17:47:11;5.80;99.90
16728;DHT22;8482;54.396;18.590;2023-01-05T17:49:37;5.70;99.90
16728;DHT22;8482;54.396;18.590;2023-01-05T17:52:03;5.80;99.90
16728;DHT22;8482;54.396;18.590;2023-01-05T17:54:29;5.80;99.90
16728;DHT22;8482;54.396;18.590;2023-01-05T17:56:55;5.80;99.90
16728;DHT22;8482;54.396;18.590;2023-01-05T17:59:21;5.80;99.90
16728;DHT22;8482;54.396;18.590;2023-01-05T18:01:47;5.80;99.90
16728;DHT22;8482;54.396;18.590;2023-01-05T18:04:12;5.80;99.90
16728;DHT22;8482;54.396;18.590;2023-01-05T18:06:38;5.70;99.90
16728;DHT22;8482;54.396;18.590;2023-01-05T18:09:04;5.80;99.90
16728;DHT22;8482;54.396;18.590;2023-01-05T18:11:30;5.80;99.90
16728;DHT22;8482;54.396;18.590;2023-01-05T18:13:56;5.80;99.90
16728;DHT22;8482;54.396;18.590;2023-01-05T18:16:22;5.80;99.90
16728;DHT22;8482;54.396;18.590;2023-01-05T18:18:47;5.80;99.90
16728;DHT22;8482;54.396;18.590;2023-01-05T18:21:14;5.80;99.90
16728;DHT22;8482;54.396;18.590;2023-01-05T18:23:39;5.80;99.90
16728;DHT22;8482;54.396;18.590;2023-01-05T18:26:07;5.80;99.90
16728;DHT22;8482;54.396;18.590;2023-01-05T18:28:35;5.80;99.90
16728;DHT22;8482;54.396;18.590;2023-01-05T18:31:11;5.80;99.90
16728;DHT22;8482;54.396;18.590;2023-01-05T18:33:38;5.80;99.90
16728;DHT22;8482;54.396;18.590;2023-01-05T18:36:10;5.80;99.90
16728;DHT22;8482;54.396;18.590;2023-01-05T18:38:41;5.80;99.90
16728;DHT22;8482;54.396;18.590;2023-01-05T18:41:08;5.80;99.90
16728;DHT22;8482;54.396;18.590;2023-01-05T18:43:34;5.70;99.90
16728;DHT22;8482;54.396;18.590;2023-01-05T18:46:03;5.70;99.90
16728;DHT22;8482;54.396;18.590;2023-01-05T18:48:30;5.70;99.90
16728;DHT22;8482;54.396;18.590;2023-01-05T18:50:56;5.70;99.90
16728;DHT22;8482;54.396;18.590;2023-01-05T18:53:21;5.70;99.90
16728;DHT22;8482;54.396;18.590;2023-01-05T18:55:48;5.70;99.90
16728;DHT22;8482;54.396;18.590;2023-01-05T18:58:14;5.70;99.90
16728;DHT22;8482;54.396;18.590;2023-01-05T19:00:42;5.70;99.90
16728;DHT22;8482;54.396;18.590;2023-01-05T19:03:09;5.60;99.90
16728;DHT22;8482;54.396;18.590;2023-01-05T19:05:42;5.60;99.90
16728;DHT22;8482;54.396;18.590;2023-01-05T19:08:10;5.60;99.90
16728;DHT22;8482;54.396;18.590;2023-01-05T19:10:37;5.50;99.90
16728;DHT22;8482;54.396;18.590;2023-01-05T19:13:04;5.50;99.90
16728;DHT22;8482;54.396;18.590;2023-01-05T19:15:32;5.50;99.90
16728;DHT22;8482;54.396;18.590;2023-01-05T19:17:58;5.60;99.90
16728;DHT22;8482;54.396;18.590;2023-01-05T19:20:24;5.50;99.90
16728;DHT22;8482;54.396;18.590;2023-01-05T19:22:50;5.50;99.90
16728;DHT22;8482;54.396;18.590;2023-01-05T19:25:16;5.50;99.90
16728;DHT22;8482;54.396;18.590;2023-01-05T19:27:43;5.50;99.90
16728;DHT22;8482;54.396;18.590;2023-01-05T19:30:10;5.50;99.90
16728;DHT22;8482;54.396;18.590;2023-01-05T19:32:36;5.40;99.90
16728;DHT22;8482;54.396;18.590;2023-01-05T19:35:03;5.40;99.90
16728;DHT22;8482;54.396;18.590;2023-01-05T19:37:33;5.40;99.90
16728;DHT22;8482;54.396;18.590;2023-01-05T19:40:00;5.40;99.90
16728;DHT22;8482;54.396;18.590;2023-01-05T19:42:27;5.30;99.90
16728;DHT22;8482;54.396;18.590;2023-01-05T19:44:53;5.30;99.90
16728;DHT22;8482;54.396;18.590;2023-01-05T19:47:19;5.30;99.90
16728;DHT22;8482;54.396;18.590;2023-01-05T19:49:45;5.40;99.90
16728;DHT22;8482;54.396;18.590;2023-01-05T19:52:10;5.30;99.90
16728;DHT22;8482;54.396;18.590;2023-01-05T19:54:45;5.30;99.90
16728;DHT22;8482;54.396;18.590;2023-01-05T19:57:12;5.30;99.90
16728;DHT22;8482;54.396;18.590;2023-01-05T19:59:40;5.30;99.90
16728;DHT22;8482;54.396;18.590;2023-01-05T20:02:06;5.30;99.90
16728;DHT22;8482;54.396;18.590;2023-01-05T20:04:33;5.30;99.90
16728;DHT22;8482;54.396;18.590;2023-01-05T20:06:59;5.30;99.90
16728;DHT22;8482;54.396;18.590;2023-01-05T20:09:26;5.30;99.90
16728;DHT22;8482;54.396;18.590;2023-01-05T20:11:52;5.30;99.90
16728;DHT22;8482;54.396;18.590;2023-01-05T20:14:24;5.30;99.90
16728;DHT22;8482;54.396;18.590;2023-01-05T20:17:00;5.30;99.90
16728;DHT22;8482;54.396;18.590;2023-01-05T20:19:29;5.30;99.90
16728;DHT22;8482;54.396;18.590;2023-01-05T20:21:57;5.30;99.90
16728;DHT22;8482;54.396;18.590;2023-01-05T20:24:27;5.30;99.90
16728;DHT22;8482;54.396;18.590;2023-01-05T20:26:59;5.30;99.90
16728;DHT22;8482;54.396;18.590;2023-01-05T20:29:27;5.30;99.90
16728;DHT22;8482;54.396;18.590;2023-01-05T20:32:04;5.20;99.90
16728;DHT22;8482;54.396;18.590;2023-01-05T20:34:35;5.20;99.90
16728;DHT22;8482;54.396;18.590;2023-01-05T20:37:04;5.20;99.90
16728;DHT22;8482;54.396;18.590;2023-01-05T20:39:32;5.20;99.90
16728;DHT22;8482;54.396;18.590;2023-01-05T20:42:01;5.20;99.90
16728;DHT22;8482;54.396;18.590;2023-01-05T20:44:33;5.10;99.90
16728;DHT22;8482;54.396;18.590;2023-01-05T20:47:04;5.10;99.90
16728;DHT22;8482;54.396;18.590;2023-01-05T20:49:32;5.10;99.90
16728;DHT22;8482;54.396;18.590;2023-01-05T20:52:00;5.10;99.90
16728;DHT22;8482;54.396;18.590;2023-01-05T20:54:27;5.10;99.90
16728;DHT22;8482;54.396;18.590;2023-01-05T20:56:53;5.10;99.90
16728;DHT22;8482;54.396;18.590;2023-01-05T20:59:25;5.10;99.90
16728;DHT22;8482;54.396;18.590;2023-01-05T21:01:55;5.10;99.90
16728;DHT22;8482;54.396;18.590;2023-01-05T21:04:23;5.10;99.90
16728;DHT22;8482;54.396;18.590;2023-01-05T21:06:54;5.10;99.90
16728;DHT22;8482;54.396;18.590;2023-01-05T21:09:25;5.10;99.90
16728;DHT22;8482;54.396;18.590;2023-01-05T21:11:53;5.10;99.90
16728;DHT22;8482;54.396;18.590;2023-01-05T21:14:23;5.10;99.90
16728;DHT22;8482;54.396;18.590;2023-01-05T21:16:54;5.00;99.90
16728;DHT22;8482;54.396;18.590;2023-01-05T21:19:21;5.10;99.90
16728;DHT22;8482;54.396;18.590;2023-01-05T21:21:54;5.10;99.90
16728;DHT22;8482;54.396;18.590;2023-01-05T21:24:22;5.10;99.90
16728;DHT22;8482;54.396;18.590;2023-01-05T21:26:49;5.10;99.90
16728;DHT22;8482;54.396;18.590;2023-01-05T21:29:16;5.00;99.90
16728;DHT22;8482;54.396;18.590;2023-01-05T21:31:44;5.00;99.90
16728;DHT22;8482;54.396;18.590;2023-01-05T21:34:11;5.00;99.90
16728;DHT22;8482;54.396;18.590;2023-01-05T21:36:39;5.00;99.90
16728;DHT22;8482;54.396;18.590;2023-01-05T21:39:15;5.00;99.90
16728;DHT22;8482;54.396;18.590;2023-01-05T21:41:44;5.00;99.90
16728;DHT22;8482;54.396;18.590;2023-01-05T21:44:33;5.00;99.90
16728;DHT22;8482;54.396;18.590;2023-01-05T21:47:05;5.00;99.90
16728;DHT22;8482;54.396;18.590;2023-01-05T21:49:33;5.00;99.90
16728;DHT22;8482;54.396;18.590;2023-01-05T21:51:59;5.00;99.90
16728;DHT22;8482;54.396;18.590;2023-01-05T21:54:44;5.00;99.90
16728;DHT22;8482;54.396;18.590;2023-01-05T21:57:28;5.00;99.90
16728;DHT22;8482;54.396;18.590;2023-01-05T21:59:54;5.00;99.90
16728;DHT22;8482;54.396;18.590;2023-01-05T22:02:20;5.00;99.90
16728;DHT22;8482;54.396;18.590;2023-01-05T22:04:46;5.00;99.90
16728;DHT22;8482;54.396;18.590;2023-01-05T22:07:12;5.00;99.90
16728;DHT22;8482;54.396;18.590;2023-01-05T22:09:38;5.00;99.90
16728;DHT22;8482;54.396;18.590;2023-01-05T22:12:05;5.00;99.90
16728;DHT22;8482;54.396;18.590;2023-01-05T22:14:36;5.10;99.90
16728;DHT22;8482;54.396;18.590;2023-01-05T22:17:04;5.10;99.90
16728;DHT22;8482;54.396;18.590;2023-01-05T22:19:31;5.10;99.90
16728;DHT22;8482;54.396;18.590;2023-01-05T22:21:57;5.00;99.90
16728;DHT22;8482;54.396;18.590;2023-01-05T22:24:23;5.00;99.90
16728;DHT22;8482;54.396;18.590;2023-01-05T22:26:48;5.00;99.90
16728;DHT22;8482;54.396;18.590;2023-01-05T22:29:14;5.00;99.90
16728;DHT22;8482;54.396;18.590;2023-01-05T22:31:41;5.00;99.90
16728;DHT22;8482;54.396;18.590;2023-01-05T22:34:08;5.00;99.90
16728;DHT22;8482;54.396;18.590;2023-01-05T22:36:34;5.00;99.90
16728;DHT22;8482;54.396;18.590;2023-01-05T22:39:00;5.00;99.90
16728;DHT22;8482;54.396;18.590;2023-01-05T22:41:28;5.00;99.90
16728;DHT22;8482;54.396;18.590;2023-01-05T22:43:55;4.90;99.90
16728;DHT22;8482;54.396;18.590;2023-01-05T22:46:26;5.00;99.90
16728;DHT22;8482;54.396;18.590;2023-01-05T22:48:54;5.00;99.90
16728;DHT22;8482;54.396;18.590;2023-01-05T22:51:35;5.00;99.90
16728;DHT22;8482;54.396;18.590;2023-01-05T22:54:03;5.00;99.90
16728;DHT22;8482;54.396;18.590;2023-01-05T22:56:31;5.00;99.90
16728;DHT22;8482;54.396;18.590;2023-01-05T22:58:58;5.10;99.90
16728;DHT22;8482;54.396;18.590;2023-01-05T23:01:28;5.10;99.90
16728;DHT22;8482;54.396;18.590;2023-01-05T23:03:58;5.10;99.90
16728;DHT22;8482;54.396;18.590;2023-01-05T23:06:25;5.10;99.90
16728;DHT22;8482;54.396;18.590;2023-01-05T23:08:52;5.10;99.90
